createdAt,value
2022-09-28T00:00:42.159Z,99030.09
2022-09-28T00:01:45.099Z,99029.00
2022-09-28T00:02:47.651Z,99024.06
2022-09-28T00:03:52.373Z,99026.31
2022-09-28T00:04:55.063Z,99028.19
2022-09-28T00:06:02.582Z,99025.19
2022-09-28T00:07:04.808Z,99029.38
2022-09-28T00:08:07.045Z,99038.06
2022-09-28T00:09:09.434Z,99026.72
2022-09-28T00:10:14.813Z,99027.84
2022-09-28T00:11:20.160Z,99025.19
2022-09-28T00:12:24.016Z,99023.31
2022-09-28T00:13:26.301Z,99018.78
2022-09-28T00:14:28.604Z,99015.72
2022-09-28T00:15:30.895Z,99021.41
2022-09-28T00:16:39.346Z,99013.06
2022-09-28T00:17:41.844Z,99017.97
2022-09-28T00:18:45.734Z,99020.25
2022-09-28T00:19:48.456Z,99016.47
2022-09-28T00:21:04.514Z,99024.06
2022-09-28T00:22:07.318Z,99021.03
2022-09-28T00:23:09.815Z,99024.44
2022-09-28T00:24:22.964Z,99010.41
2022-09-28T00:25:28.218Z,99015.72
2022-09-28T00:26:32.978Z,99012.69
2022-09-28T00:27:35.302Z,99013.47
2022-09-28T00:28:37.608Z,99021.41
2022-09-28T00:29:40.095Z,99025.59
2022-09-28T00:30:42.410Z,99025.59
2022-09-28T00:31:45.153Z,99025.94
2022-09-28T00:32:47.620Z,99026.72
2022-09-28T00:33:51.612Z,99030.88
2022-09-28T00:34:54.038Z,99031.22
2022-09-28T00:35:58.461Z,99034.66
2022-09-28T00:37:02.525Z,99034.66
2022-09-28T00:38:04.820Z,99030.88
2022-09-28T00:39:08.634Z,99030.09
2022-09-28T00:40:10.954Z,99038.81
2022-09-28T00:41:16.087Z,99038.44
2022-09-28T00:42:21.580Z,99039.56
2022-09-28T00:43:24.715Z,99036.91
2022-09-28T00:44:27.024Z,99038.44
2022-09-28T00:45:29.433Z,99046.00
2022-09-28T00:46:34.798Z,99043.00
2022-09-28T00:47:50.034Z,99039.16
2022-09-28T00:48:58.442Z,99042.63
2022-09-28T00:50:10.361Z,99033.13
2022-09-28T00:51:13.364Z,99047.50
2022-09-28T00:52:23.624Z,99043.72
2022-09-28T00:53:31.250Z,99051.31
2022-09-28T00:54:34.419Z,99046.41
2022-09-28T00:55:50.169Z,99047.91
2022-09-28T00:56:56.075Z,99044.13
2022-09-28T00:58:01.019Z,99044.88
2022-09-28T00:59:07.564Z,99037.31
2022-09-28T01:00:11.307Z,99042.22
2022-09-28T01:01:14.962Z,99039.22
2022-09-28T01:02:17.576Z,99040.72
2022-09-28T01:03:25.232Z,99038.09
2022-09-28T01:04:30.039Z,99032.03
2022-09-28T01:05:34.548Z,99032.41
2022-09-28T01:06:38.811Z,99032.78
2022-09-28T01:07:42.994Z,99022.56
2022-09-28T01:08:47.182Z,99028.63
2022-09-28T01:09:50.787Z,99029.38
2022-09-28T01:10:53.138Z,99011.59
2022-09-28T01:11:55.592Z,99012.75
2022-09-28T01:12:59.023Z,99014.25
2022-09-28T01:14:01.678Z,99009.31
2022-09-28T01:15:05.705Z,99011.97
2022-09-28T01:16:23.761Z,99023.66
2022-09-28T01:17:35.156Z,99013.81
2022-09-28T01:18:45.380Z,99020.63
2022-09-28T01:20:24.731Z,99021.41
2022-09-28T01:21:27.507Z,99032.72
2022-09-28T01:22:38.806Z,99030.81
2022-09-28T01:24:20.415Z,99042.91
2022-09-28T01:25:42.312Z,99045.94
2022-09-28T01:27:03.025Z,99048.97
2022-09-28T01:28:09.490Z,99055.78
2022-09-28T01:29:21.699Z,99044.44
2022-09-28T01:30:24.503Z,99054.28
2022-09-28T01:31:32.526Z,99051.25
2022-09-28T01:32:37.383Z,99057.31
2022-09-28T01:33:47.603Z,99052.78
2022-09-28T01:34:58.111Z,99058.03
2022-09-28T01:36:10.583Z,99049.72
2022-09-28T01:37:18.740Z,99050.47
2022-09-28T01:38:43.740Z,99047.44
2022-09-28T01:39:50.272Z,99043.28
2022-09-28T01:40:54.446Z,99046.25
2022-09-28T01:42:04.566Z,99049.25
2022-09-28T01:43:12.756Z,99048.16
2022-09-28T01:44:18.740Z,99048.13
2022-09-28T01:45:31.980Z,99050.34
2022-09-28T01:46:41.485Z,99051.50
2022-09-28T01:47:48.599Z,99053.41
2022-09-28T01:48:59.506Z,99044.31
2022-09-28T01:50:08.705Z,99046.56
2022-09-28T01:51:36.418Z,99054.13
2022-09-28T01:52:51.874Z,99052.63
2022-09-28T01:53:57.950Z,99051.50
2022-09-28T01:55:07.566Z,99055.59
2022-09-28T01:56:18.566Z,99066.13
2022-09-28T01:57:23.495Z,99064.66
2022-09-28T01:58:32.672Z,99068.81
2022-09-28T01:59:38.723Z,99062.75
2022-09-28T02:00:46.332Z,99068.78
2022-09-28T02:02:16.774Z,99072.09
2022-09-28T02:03:24.846Z,99064.94
2022-09-28T02:04:42.925Z,99072.47
2022-09-28T02:05:55.247Z,99074.38
2022-09-28T02:07:03.588Z,99068.72
2022-09-28T02:08:30.823Z,99072.53
2022-09-28T02:09:39.826Z,99077.38
2022-09-28T02:10:45.853Z,99075.13
2022-09-28T02:11:55.124Z,99071.34
2022-09-28T02:13:09.173Z,99076.94
2022-09-28T02:14:14.967Z,99078.84
2022-09-28T02:15:29.522Z,99079.56
2022-09-28T02:16:58.305Z,99092.59
2022-09-28T02:18:04.747Z,99090.03
2022-09-28T02:19:12.400Z,99082.84
2022-09-28T02:20:15.684Z,99084.38
2022-09-28T02:21:21.420Z,99090.78
2022-09-28T02:22:51.940Z,99093.13
2022-09-28T02:24:02.717Z,99104.84
2022-09-28T02:25:10.617Z,99101.84
2022-09-28T02:26:18.238Z,99107.09
2022-09-28T02:27:26.687Z,99106.38
2022-09-28T02:28:28.985Z,99110.53
2022-09-28T02:29:31.304Z,99106.75
2022-09-28T02:30:36.876Z,99102.19
2022-09-28T02:31:39.380Z,99107.47
2022-09-28T02:32:46.780Z,99106.34
2022-09-28T02:33:52.470Z,99103.38
2022-09-28T02:34:55.854Z,99101.84
2022-09-28T02:36:00.070Z,99107.81
2022-09-28T02:37:04.108Z,99104.81
2022-09-28T02:38:06.905Z,99108.19
2022-09-28T02:39:18.002Z,99123.25
2022-09-28T02:40:24.237Z,99119.47
2022-09-28T02:41:40.080Z,99122.47
2022-09-28T02:43:10.251Z,99135.72
2022-09-28T02:44:46.979Z,99137.97
2022-09-28T02:46:21.570Z,99132.34
2022-09-28T02:47:46.907Z,99142.91
2022-09-28T02:49:21.434Z,99148.50
2022-09-28T02:50:45.033Z,99140.50
2022-09-28T02:51:56.492Z,99151.75
2022-09-28T02:53:01.504Z,99155.19
2022-09-28T02:54:27.874Z,99153.31
2022-09-28T02:55:57.046Z,99159.69
2022-09-28T02:57:36.094Z,99169.06
2022-09-28T02:59:09.791Z,99168.34
2022-09-28T03:00:18.428Z,99172.06
2022-09-28T03:01:32.897Z,99167.56
2022-09-28T03:03:01.803Z,99184.84
2022-09-28T03:04:21.535Z,99176.41
2022-09-28T03:05:33.858Z,99182.13
2022-09-28T03:06:42.304Z,99178.69
2022-09-28T03:07:58.661Z,99176.53
2022-09-28T03:09:04.754Z,99175.44
2022-09-28T03:10:37.520Z,99176.19
2022-09-28T03:12:03.876Z,99177.56
2022-09-28T03:13:06.651Z,99182.13
2022-09-28T03:14:11.753Z,99183.97
2022-09-28T03:15:33.454Z,99176.84
2022-09-28T03:16:36.407Z,99175.31
2022-09-28T03:17:38.963Z,99174.19
2022-09-28T03:18:41.826Z,99181.75
2022-09-28T03:19:44.164Z,99187.72
2022-09-28T03:20:47.699Z,99183.16
2022-09-28T03:21:50.077Z,99180.59
2022-09-28T03:23:19.832Z,99183.25
2022-09-28T03:24:15.507Z,99186.22
2022-09-28T03:25:18.217Z,99180.94
2022-09-28T03:26:20.691Z,99188.84
2022-09-28T03:27:23.730Z,99184.38
2022-09-28T03:28:27.287Z,99188.91
2022-09-28T03:29:31.587Z,99182.53
2022-09-28T03:30:44.569Z,99182.16
2022-09-28T03:31:48.177Z,99181.00
2022-09-28T03:33:00.990Z,99180.50
2022-09-28T03:34:05.902Z,99177.16
2022-09-28T03:35:09.677Z,99178.22
2022-09-28T03:36:12.120Z,99172.13
2022-09-28T03:37:17.132Z,99169.13
2022-09-28T03:38:20.690Z,99176.19
2022-09-28T03:39:23.334Z,99170.94
2022-09-28T03:40:26.054Z,99179.63
2022-09-28T03:41:28.448Z,99175.44
2022-09-28T03:42:31.318Z,99177.59
2022-09-28T03:43:33.642Z,99178.34
2022-09-28T03:44:37.872Z,99181.03
2022-09-28T03:45:40.953Z,99184.00
2022-09-28T03:46:43.643Z,99188.56
2022-09-28T03:47:49.431Z,99193.41
2022-09-28T03:48:57.860Z,99193.41
2022-09-28T03:50:00.507Z,99187.72
2022-09-28T03:51:09.347Z,99194.16
2022-09-28T03:52:12.437Z,99191.00
2022-09-28T03:53:14.741Z,99188.06
2022-09-28T03:54:17.156Z,99198.59
2022-09-28T03:55:19.519Z,99201.63
2022-09-28T03:56:22.053Z,99192.56
2022-09-28T03:57:24.385Z,99200.16
2022-09-28T03:58:28.376Z,99194.91
2022-09-28T03:59:31.027Z,99201.66
2022-09-28T04:00:33.476Z,99207.72
2022-09-28T04:01:35.939Z,99206.19
2022-09-28T04:02:38.686Z,99203.56
2022-09-28T04:03:41.195Z,99203.81
2022-09-28T04:04:43.481Z,99205.69
2022-09-28T04:05:50.306Z,99207.59
2022-09-28T04:06:52.788Z,99204.91
2022-09-28T04:07:58.662Z,99213.66
2022-09-28T04:09:01.356Z,99208.38
2022-09-28T04:10:05.384Z,99208.03
2022-09-28T04:11:08.111Z,99207.66
2022-09-28T04:12:10.620Z,99204.63
2022-09-28T04:13:13.031Z,99206.88
2022-09-28T04:14:16.641Z,99203.81
2022-09-28T04:15:19.064Z,99207.53
2022-09-28T04:16:21.716Z,99206.41
2022-09-28T04:17:50.409Z,99210.53
2022-09-28T04:19:10.825Z,99211.59
2022-09-28T04:20:41.651Z,99212.41
2022-09-28T04:21:50.741Z,99212.81
2022-09-28T04:22:53.390Z,99214.13
2022-09-28T04:23:55.993Z,99219.06
2022-09-28T04:24:58.398Z,99208.94
2022-09-28T04:26:01.020Z,99217.69
2022-09-28T04:27:26.937Z,99206.72
2022-09-28T04:28:47.942Z,99206.38
2022-09-28T04:29:50.561Z,99202.22
2022-09-28T04:30:53.587Z,99213.84
2022-09-28T04:31:57.718Z,99208.22
2022-09-28T04:33:10.835Z,99205.25
2022-09-28T04:34:15.088Z,99204.91
2022-09-28T04:35:17.658Z,99206.41
2022-09-28T04:36:20.302Z,99206.03
2022-09-28T04:37:22.768Z,99202.28
2022-09-28T04:38:48.461Z,99201.44
2022-09-28T04:39:48.810Z,99200.25
2022-09-28T04:40:54.482Z,99204.34
2022-09-28T04:41:56.833Z,99195.66
2022-09-28T04:42:59.227Z,99214.22
2022-09-28T04:44:02.252Z,99211.59
2022-09-28T04:45:05.207Z,99216.97
2022-09-28T04:46:11.045Z,99210.56
2022-09-28T04:47:19.443Z,99215.81
2022-09-28T04:48:41.722Z,99223.78
2022-09-28T04:49:53.975Z,99222.41
2022-09-28T04:51:02.305Z,99225.91
2022-09-28T04:52:06.082Z,99222.47
2022-09-28T04:53:10.429Z,99222.16
2022-09-28T04:54:12.840Z,99229.69
2022-09-28T04:55:15.376Z,99222.47
2022-09-28T04:56:19.181Z,99220.53
2022-09-28T04:57:22.118Z,99219.41
2022-09-28T04:58:25.089Z,99228.47
2022-09-28T04:59:27.528Z,99227.75
2022-09-28T05:00:33.228Z,99220.91
2022-09-28T05:01:50.712Z,99230.66
2022-09-28T05:03:11.833Z,99230.81
2022-09-28T05:04:32.860Z,99235.03
2022-09-28T05:05:48.201Z,99241.88
2022-09-28T05:07:16.021Z,99243.38
2022-09-28T05:08:18.922Z,99245.28
2022-09-28T05:09:21.379Z,99245.88
2022-09-28T05:10:24.486Z,99247.00
2022-09-28T05:11:28.025Z,99251.16
2022-09-28T05:12:30.399Z,99252.00
2022-09-28T05:13:40.844Z,99254.63
2022-09-28T05:14:43.122Z,99252.56
2022-09-28T05:15:46.152Z,99252.69
2022-09-28T05:16:50.016Z,99259.97
2022-09-28T05:18:15.098Z,99259.59
2022-09-28T05:19:23.308Z,99252.78
2022-09-28T05:20:27.928Z,99256.56
2022-09-28T05:21:31.041Z,99257.34
2022-09-28T05:22:33.589Z,99260.44
2022-09-28T05:23:36.023Z,99258.53
2022-09-28T05:24:38.507Z,99257.84
2022-09-28T05:25:41.560Z,99257.84
2022-09-28T05:26:52.917Z,99262.34
2022-09-28T05:27:58.485Z,99257.50
2022-09-28T05:29:32.237Z,99258.31
2022-09-28T05:30:53.699Z,99255.75
2022-09-28T05:32:14.441Z,99250.88
2022-09-28T05:33:26.124Z,99248.63
2022-09-28T05:34:42.881Z,99263.03
2022-09-28T05:35:55.148Z,99257.00
2022-09-28T05:36:59.271Z,99263.13
2022-09-28T05:38:05.779Z,99260.13
2022-09-28T05:39:09.972Z,99259.84
2022-09-28T05:40:12.566Z,99257.16
2022-09-28T05:41:17.946Z,99256.44
2022-09-28T05:42:20.459Z,99255.34
2022-09-28T05:43:23.020Z,99264.06
2022-09-28T05:44:26.094Z,99262.81
2022-09-28T05:45:30.483Z,99259.47
2022-09-28T05:46:32.918Z,99258.03
2022-09-28T05:47:41.268Z,99266.47
2022-09-28T05:48:44.192Z,99271.09
2022-09-28T05:49:46.485Z,99268.47
2022-09-28T05:50:52.816Z,99266.94
2022-09-28T05:51:56.153Z,99265.81
2022-09-28T05:53:02.967Z,99269.69
2022-09-28T05:54:13.425Z,99267.53
2022-09-28T05:55:19.797Z,99271.31
2022-09-28T05:56:22.341Z,99265.53
2022-09-28T05:57:26.126Z,99263.03
2022-09-28T05:58:29.010Z,99260.72
2022-09-28T05:59:37.415Z,99277.91
2022-09-28T06:00:41.412Z,99278.53
2022-09-28T06:01:43.818Z,99281.84
2022-09-28T06:03:10.944Z,99280.41
2022-09-28T06:04:14.913Z,99284.03
2022-09-28T06:05:19.021Z,99284.72
2022-09-28T06:06:23.965Z,99277.53
2022-09-28T06:07:26.780Z,99284.06
2022-09-28T06:08:33.133Z,99283.41
2022-09-28T06:10:13.913Z,99278.38
2022-09-28T06:11:17.884Z,99277.72
2022-09-28T06:12:20.603Z,99289.28
2022-09-28T06:13:24.839Z,99281.91
2022-09-28T06:14:27.657Z,99287.22
2022-09-28T06:15:32.088Z,99286.84
2022-09-28T06:16:38.281Z,99284.16
2022-09-28T06:17:45.067Z,99286.09
2022-09-28T06:19:07.103Z,99280.00
2022-09-28T06:20:48.554Z,99283.69
2022-09-28T06:21:52.496Z,99278.69
2022-09-28T06:22:55.451Z,99283.22
2022-09-28T06:23:58.068Z,99287.31
2022-09-28T06:25:00.956Z,99285.06
2022-09-28T06:26:03.618Z,99288.72
2022-09-28T06:27:06.706Z,99287.56
2022-09-28T06:28:14.516Z,99286.88
2022-09-28T06:29:19.588Z,99288.50
2022-09-28T06:30:27.088Z,99281.41
2022-09-28T06:31:31.406Z,99279.97
2022-09-28T06:32:34.328Z,99279.63
2022-09-28T06:33:38.811Z,99283.84
2022-09-28T06:34:42.957Z,99284.56
2022-09-28T06:35:45.457Z,99286.44
2022-09-28T06:36:49.058Z,99300.91
2022-09-28T06:37:52.524Z,99298.00
2022-09-28T06:38:55.617Z,99300.66
2022-09-28T06:39:58.575Z,99297.72
2022-09-28T06:41:01.201Z,99301.03
2022-09-28T06:42:04.113Z,99302.72
2022-09-28T06:43:28.910Z,99304.13
2022-09-28T06:44:52.298Z,99302.28
2022-09-28T06:46:17.977Z,99288.47
2022-09-28T06:47:24.256Z,99296.91
2022-09-28T06:48:45.931Z,99287.59
2022-09-28T06:49:55.517Z,99290.50
2022-09-28T06:51:21.271Z,99291.09
2022-09-28T06:52:33.492Z,99295.66
2022-09-28T06:53:42.294Z,99294.13
2022-09-28T06:54:50.114Z,99294.53
2022-09-28T06:56:07.427Z,99296.50
2022-09-28T06:57:10.403Z,99293.97
2022-09-28T06:58:16.300Z,99297.66
2022-09-28T06:59:20.492Z,99291.59
2022-09-28T07:00:23.129Z,99292.53
2022-09-28T07:01:25.688Z,99300.41
2022-09-28T07:02:42.875Z,99301.69
2022-09-28T07:04:03.385Z,99309.59
2022-09-28T07:05:27.688Z,99308.31
2022-09-28T07:06:39.597Z,99302.28
2022-09-28T07:08:08.589Z,99304.72
2022-09-28T07:09:32.173Z,99306.00
2022-09-28T07:11:08.449Z,99311.38
2022-09-28T07:12:40.850Z,99313.16
2022-09-28T07:14:01.535Z,99311.47
2022-09-28T07:15:07.548Z,99319.88
2022-09-28T07:16:10.192Z,99323.66
2022-09-28T07:17:14.447Z,99321.81
2022-09-28T07:18:19.221Z,99317.06
2022-09-28T07:19:21.989Z,99319.44
2022-09-28T07:20:39.857Z,99319.72
2022-09-28T07:21:58.937Z,99326.09
2022-09-28T07:23:17.225Z,99328.34
2022-09-28T07:24:41.021Z,99323.66
2022-09-28T07:26:24.390Z,99333.44
2022-09-28T07:28:00.582Z,99328.94
2022-09-28T07:29:20.863Z,99324.16
2022-09-28T07:30:36.782Z,99327.31
2022-09-28T07:32:14.363Z,99332.66
2022-09-28T07:33:51.458Z,99326.19
2022-09-28T07:35:09.405Z,99336.22
2022-09-28T07:36:21.151Z,99326.53
2022-09-28T07:37:25.083Z,99323.53
2022-09-28T07:38:28.108Z,99323.53
2022-09-28T07:39:31.665Z,99316.13
2022-09-28T07:40:54.884Z,99314.28
2022-09-28T07:42:02.520Z,99320.13
2022-09-28T07:43:06.275Z,99324.22
2022-09-28T07:44:08.801Z,99313.38
2022-09-28T07:45:12.338Z,99315.41
2022-09-28T07:46:15.074Z,99317.34
2022-09-28T07:47:30.894Z,99323.00
2022-09-28T07:49:09.836Z,99325.09
2022-09-28T07:50:33.581Z,99333.38
2022-09-28T07:51:50.195Z,99330.59
2022-09-28T07:52:58.934Z,99323.84
2022-09-28T07:54:06.719Z,99328.78
2022-09-28T07:55:22.157Z,99331.25
2022-09-28T07:56:46.224Z,99328.94
2022-09-28T07:57:56.471Z,99333.41
2022-09-28T07:59:18.005Z,99335.03
2022-09-28T08:00:39.418Z,99344.50
2022-09-28T08:01:44.743Z,99338.59
2022-09-28T08:02:50.178Z,99336.47
2022-09-28T08:03:57.178Z,99329.84
2022-09-28T08:05:00.011Z,99341.13
2022-09-28T08:06:07.670Z,99337.03
2022-09-28T08:07:11.658Z,99343.53
2022-09-28T08:08:16.051Z,99346.69
2022-09-28T08:09:19.193Z,99334.41
2022-09-28T08:10:46.528Z,99348.53
2022-09-28T08:12:19.967Z,99338.97
2022-09-28T08:14:09.824Z,99343.00
2022-09-28T08:15:42.447Z,99341.34
2022-09-28T08:16:56.237Z,99343.75
2022-09-28T08:18:10.846Z,99348.31
2022-09-28T08:19:13.515Z,99347.09
2022-09-28T08:20:34.869Z,99338.13
2022-09-28T08:21:46.230Z,99340.44
2022-09-28T08:22:49.306Z,99346.59
2022-09-28T08:23:52.256Z,99347.19
2022-09-28T08:24:54.762Z,99341.63
2022-09-28T08:25:57.365Z,99348.66
2022-09-28T08:27:00.753Z,99348.88
2022-09-28T08:28:08.999Z,99345.56
2022-09-28T08:29:18.747Z,99341.63
2022-09-28T08:30:27.636Z,99354.53
2022-09-28T08:32:09.551Z,99346.81
2022-09-28T08:33:31.856Z,99355.13
2022-09-28T08:35:09.415Z,99353.91
2022-09-28T08:36:21.126Z,99355.06
2022-09-28T08:37:33.991Z,99349.28
2022-09-28T08:38:55.383Z,99355.78
2022-09-28T08:40:25.132Z,99354.63
2022-09-28T08:41:58.780Z,99354.88
2022-09-28T08:43:56.121Z,99363.16
2022-09-28T08:45:15.624Z,99357.69
2022-09-28T08:46:47.944Z,99366.28
2022-09-28T08:48:36.874Z,99372.84
2022-09-28T08:50:01.106Z,99363.25
2022-09-28T08:51:37.039Z,99359.00
2022-09-28T08:53:00.082Z,99362.94
2022-09-28T08:54:52.160Z,99360.03
2022-09-28T08:56:12.258Z,99355.50
2022-09-28T08:57:20.488Z,99353.91
2022-09-28T08:58:36.196Z,99362.13
2022-09-28T09:01:49.592Z,99357.31
2022-09-28T09:03:20.981Z,99356.00
2022-09-28T09:04:41.354Z,99355.44
2022-09-28T09:06:36.699Z,99356.09
2022-09-28T09:08:16.649Z,99358.06
2022-09-28T09:09:36.871Z,99361.63
2022-09-28T09:10:43.422Z,99359.47
2022-09-28T09:12:11.237Z,99355.94
2022-09-28T09:14:03.422Z,99353.59
2022-09-28T09:15:32.737Z,99353.56
2022-09-28T09:18:40.877Z,99355.19
2022-09-28T09:20:36.445Z,99352.06
2022-09-28T09:22:05.391Z,99345.31
2022-09-28T09:23:28.633Z,99352.34
2022-09-28T09:24:43.601Z,99350.06
2022-09-28T09:25:53.329Z,99341.31
2022-09-28T09:27:07.103Z,99357.03
2022-09-28T09:28:45.304Z,99351.22
2022-09-28T09:30:55.439Z,99356.41
2022-09-28T09:32:14.226Z,99349.03
2022-09-28T09:35:30.392Z,99353.56
2022-09-28T09:37:08.630Z,99356.59
2022-09-28T09:38:43.212Z,99352.09
2022-09-28T09:40:04.057Z,99362.91
2022-09-28T09:41:54.782Z,99358.09
2022-09-28T09:43:39.885Z,99352.19
2022-09-28T09:45:31.618Z,99351.78
2022-09-28T09:47:11.234Z,99356.25
2022-09-28T09:48:48.296Z,99351.75
2022-09-28T09:50:21.079Z,99351.69
2022-09-28T09:51:47.150Z,99348.31
2022-09-28T09:54:29.757Z,99355.19
2022-09-28T09:55:51.850Z,99347.81
2022-09-28T09:57:10.419Z,99354.69
2022-09-28T09:58:46.456Z,99349.63
2022-09-28T09:59:57.470Z,99349.03
2022-09-28T10:01:20.289Z,99353.28
2022-09-28T10:02:43.438Z,99367.88
2022-09-28T10:04:01.209Z,99358.97
2022-09-28T10:05:12.422Z,99361.78
2022-09-28T10:06:25.381Z,99353.25
2022-09-28T10:08:09.127Z,99359.47
2022-09-28T10:09:44.711Z,99359.16
2022-09-28T10:11:19.409Z,99346.81
2022-09-28T10:12:27.024Z,99357.94
2022-09-28T10:13:32.394Z,99352.56
2022-09-28T10:14:41.018Z,99359.59
2022-09-28T10:15:53.327Z,99353.50
2022-09-28T10:17:08.368Z,99360.50
2022-09-28T10:18:38.808Z,99356.13
2022-09-28T10:20:01.571Z,99359.38
2022-09-28T10:21:33.126Z,99361.31
2022-09-28T10:22:47.067Z,99372.00
2022-09-28T10:24:45.496Z,99367.72
2022-09-28T10:25:55.097Z,99358.31
2022-09-28T10:27:04.711Z,99369.16
2022-09-28T10:28:21.251Z,99356.47
2022-09-28T10:29:27.615Z,99361.63
2022-09-28T10:30:46.684Z,99361.53
2022-09-28T10:32:37.879Z,99369.41
2022-09-28T10:33:50.421Z,99366.91
2022-09-28T10:35:44.426Z,99367.22
2022-09-28T10:37:00.348Z,99366.25
2022-09-28T10:38:22.291Z,99369.22
2022-09-28T10:42:10.347Z,99374.81
2022-09-28T10:43:25.052Z,99368.81
2022-09-28T10:44:35.059Z,99369.44
2022-09-28T10:46:12.796Z,99367.69
2022-09-28T10:47:28.013Z,99379.00
2022-09-28T10:48:48.671Z,99374.00
2022-09-28T10:49:53.829Z,99367.81
2022-09-28T10:51:08.536Z,99372.34
2022-09-28T10:52:42.752Z,99369.56
2022-09-28T10:54:02.140Z,99366.22
2022-09-28T10:55:25.911Z,99362.88
2022-09-28T10:56:37.348Z,99363.13
2022-09-28T10:57:45.978Z,99361.31
2022-09-28T10:58:48.689Z,99363.31
2022-09-28T10:59:58.972Z,99360.81
2022-09-28T11:01:11.196Z,99362.47
2022-09-28T11:02:22.704Z,99359.19
2022-09-28T11:03:29.883Z,99359.69
2022-09-28T11:04:41.950Z,99357.72
2022-09-28T11:06:03.382Z,99350.41
2022-09-28T11:07:21.185Z,99357.28
2022-09-28T11:08:40.422Z,99357.53
2022-09-28T11:09:49.257Z,99363.63
2022-09-28T11:11:07.030Z,99362.69
2022-09-28T11:12:15.631Z,99365.63
2022-09-28T11:13:18.635Z,99360.53
2022-09-28T11:14:42.509Z,99358.25
2022-09-28T11:15:54.973Z,99367.59
2022-09-28T11:17:27.827Z,99359.56
2022-09-28T11:18:32.600Z,99358.63
2022-09-28T11:19:42.502Z,99352.00
2022-09-28T11:20:47.868Z,99359.50
2022-09-28T11:21:51.353Z,99356.94
2022-09-28T11:23:18.146Z,99366.56
2022-09-28T11:24:21.136Z,99357.22
2022-09-28T11:25:27.162Z,99357.78
2022-09-28T11:26:39.286Z,99354.75
2022-09-28T11:27:57.193Z,99354.03
2022-09-28T11:28:59.574Z,99359.16
2022-09-28T11:30:38.913Z,99365.00
2022-09-28T11:32:19.357Z,99357.25
2022-09-28T11:34:07.368Z,99368.47
2022-09-28T11:35:20.048Z,99365.50
2022-09-28T11:36:47.144Z,99374.66
2022-09-28T11:37:58.844Z,99369.91
2022-09-28T11:39:46.354Z,99353.66
2022-09-28T11:41:13.509Z,99361.16
2022-09-28T11:42:32.626Z,99355.72
2022-09-28T11:43:43.789Z,99356.53
2022-09-28T11:44:48.532Z,99359.59
2022-09-28T11:46:08.978Z,99360.50
2022-09-28T11:47:29.785Z,99359.50
2022-09-28T11:48:58.424Z,99352.16
2022-09-28T11:50:35.892Z,99364.13
2022-09-28T11:51:41.564Z,99361.13
2022-09-28T11:52:45.223Z,99354.59
2022-09-28T11:53:55.509Z,99354.06
2022-09-28T11:55:27.247Z,99362.38
2022-09-28T11:56:38.623Z,99351.44
2022-09-28T11:57:45.567Z,99351.50
2022-09-28T11:58:55.638Z,99358.25
2022-09-28T12:00:14.952Z,99363.56
2022-09-28T12:01:48.004Z,99366.31
2022-09-28T12:03:13.977Z,99367.34
2022-09-28T12:04:16.923Z,99361.91
2022-09-28T12:05:34.080Z,99358.22
2022-09-28T12:06:48.130Z,99360.72
2022-09-28T12:08:00.047Z,99366.44
2022-09-28T12:09:33.559Z,99367.53
2022-09-28T12:10:55.691Z,99359.63
2022-09-28T12:12:32.880Z,99363.00
2022-09-28T12:13:44.860Z,99368.88
2022-09-28T12:14:47.912Z,99368.53
2022-09-28T12:17:21.025Z,99376.91
2022-09-28T12:18:52.368Z,99364.34
2022-09-28T12:20:16.472Z,99369.47
2022-09-28T12:21:31.438Z,99371.63
2022-09-28T12:23:00.527Z,99370.19
2022-09-28T12:24:13.238Z,99362.16
2022-09-28T12:25:19.661Z,99368.19
2022-09-28T12:26:34.634Z,99360.41
2022-09-28T12:28:07.921Z,99367.25
2022-09-28T12:29:26.769Z,99362.34
2022-09-28T12:30:37.801Z,99366.78
2022-09-28T12:32:04.570Z,99362.56
2022-09-28T12:33:18.259Z,99362.81
2022-09-28T12:34:22.394Z,99357.66
2022-09-28T12:36:01.321Z,99353.88
2022-09-28T12:37:13.210Z,99356.88
2022-09-28T12:39:31.043Z,99351.88
2022-09-28T12:40:57.949Z,99358.16
2022-09-28T12:42:39.407Z,99354.13
2022-09-28T12:43:59.208Z,99365.66
2022-09-28T12:45:20.159Z,99355.00
2022-09-28T12:46:25.920Z,99362.22
2022-09-28T12:48:00.196Z,99368.41
2022-09-28T12:50:20.110Z,99361.88
2022-09-28T12:50:57.136Z,99358.25
2022-09-28T12:52:07.400Z,99364.09
2022-09-28T12:53:31.294Z,99365.63
2022-09-28T12:54:54.819Z,99362.53
2022-09-28T12:56:08.737Z,99360.19
2022-09-28T12:57:39.064Z,99359.53
2022-09-28T12:58:50.643Z,99354.59
2022-09-28T12:59:53.172Z,99359.00
2022-09-28T13:01:08.597Z,99366.31
2022-09-28T13:02:32.660Z,99366.88
2022-09-28T13:04:12.768Z,99367.00
2022-09-28T13:05:37.908Z,99376.66
2022-09-28T13:07:07.640Z,99372.28
2022-09-28T13:08:15.463Z,99376.13
2022-09-28T13:09:26.561Z,99373.34
2022-09-28T13:11:04.253Z,99365.50
2022-09-28T13:12:28.481Z,99371.41
2022-09-28T13:14:03.400Z,99368.31
2022-09-28T13:15:29.601Z,99370.38
2022-09-28T13:16:51.025Z,99364.97
2022-09-28T13:18:16.160Z,99354.09
2022-09-28T13:19:34.641Z,99349.34
2022-09-28T13:20:49.875Z,99345.06
2022-09-28T13:22:22.764Z,99350.97
2022-09-28T13:23:34.733Z,99349.78
2022-09-28T13:24:44.535Z,99348.13
2022-09-28T13:25:57.370Z,99352.19
2022-09-28T13:27:07.332Z,99360.00
2022-09-28T13:28:12.463Z,99352.72
2022-09-28T13:29:18.938Z,99357.75
2022-09-28T13:30:22.100Z,99352.53
2022-09-28T13:31:33.053Z,99347.25
2022-09-28T13:32:39.188Z,99347.06
2022-09-28T13:33:44.660Z,99349.72
2022-09-28T13:34:50.817Z,99345.88
2022-09-28T13:35:53.324Z,99354.59
2022-09-28T13:37:10.181Z,99340.28
2022-09-28T13:38:19.506Z,99353.66
2022-09-28T13:39:44.249Z,99343.59
2022-09-28T13:41:04.819Z,99344.09
2022-09-28T13:42:09.925Z,99344.75
2022-09-28T13:43:28.866Z,99344.47
2022-09-28T13:45:06.562Z,99349.16
2022-09-28T13:46:37.433Z,99340.03
2022-09-28T13:47:54.489Z,99341.47
2022-09-28T13:49:22.823Z,99348.88
2022-09-28T13:50:43.386Z,99342.63
2022-09-28T13:52:26.631Z,99345.25
2022-09-28T13:53:54.215Z,99348.94
2022-09-28T13:55:21.205Z,99344.44
2022-09-28T13:56:26.555Z,99347.66
2022-09-28T13:57:44.088Z,99344.63
2022-09-28T13:58:59.341Z,99341.19
2022-09-28T14:00:07.647Z,99341.88
2022-09-28T14:01:40.211Z,99346.03
2022-09-28T14:02:48.011Z,99347.44
2022-09-28T14:04:16.405Z,99340.25
2022-09-28T14:05:21.984Z,99340.47
2022-09-28T14:06:31.147Z,99339.50
2022-09-28T14:07:36.150Z,99340.66
2022-09-28T14:08:44.205Z,99329.97
2022-09-28T14:09:48.733Z,99336.28
2022-09-28T14:11:36.966Z,99331.28
2022-09-28T14:13:04.189Z,99331.47
2022-09-28T14:14:14.453Z,99323.44
2022-09-28T14:15:29.323Z,99321.34
2022-09-28T14:16:34.082Z,99318.91
2022-09-28T14:17:53.950Z,99318.16
2022-09-28T14:19:08.492Z,99316.78
2022-09-28T14:20:16.577Z,99323.38
2022-09-28T14:21:37.886Z,99319.19
2022-09-28T14:23:15.240Z,99314.00
2022-09-28T14:24:36.316Z,99322.91
2022-09-28T14:26:15.089Z,99317.44
2022-09-28T14:27:20.520Z,99323.72
2022-09-28T14:28:49.326Z,99327.13
2022-09-28T14:30:06.701Z,99314.38
2022-09-28T14:31:28.390Z,99312.69
2022-09-28T14:32:38.528Z,99312.03
2022-09-28T14:33:43.205Z,99305.88
2022-09-28T14:34:48.346Z,99309.34
2022-09-28T14:35:56.330Z,99300.94
2022-09-28T14:37:22.724Z,99295.41
2022-09-28T14:38:49.591Z,99291.91